createdAt,value
2023-04-13T00:02:19.744Z,78.80
2023-04-13T00:05:07.666Z,79.02
2023-04-13T00:07:54.497Z,79.24
2023-04-13T00:10:41.805Z,79.34
2023-04-13T00:13:27.808Z,79.19
2023-04-13T00:16:15.914Z,78.81
2023-04-13T00:19:02.118Z,79.10
2023-04-13T00:21:48.236Z,79.50
2023-04-13T00:24:34.313Z,79.29
2023-04-13T00:27:20.501Z,78.89
2023-04-13T00:30:08.030Z,79.22
2023-04-13T00:32:53.579Z,79.09
2023-04-13T00:35:40.044Z,78.96
2023-04-13T00:38:27.340Z,79.21
2023-04-13T00:41:13.097Z,79.64
2023-04-13T00:43:59.491Z,79.76
2023-04-13T00:46:48.284Z,79.99
2023-04-13T00:49:34.942Z,79.84
2023-04-13T00:52:21.438Z,79.94
2023-04-13T00:55:07.807Z,80.32
2023-04-13T00:57:53.589Z,80.08
2023-04-13T01:00:43.081Z,79.77
2023-04-13T01:03:29.845Z,80.05
2023-04-13T01:06:42.143Z,79.81
2023-04-13T01:09:42.392Z,79.77
2023-04-13T01:12:38.530Z,80.37
2023-04-13T01:15:25.970Z,79.36
2023-04-13T01:18:15.620Z,79.50
2023-04-13T01:21:02.693Z,79.68
2023-04-13T01:24:22.727Z,80.03
2023-04-13T01:27:13.064Z,79.36
2023-04-13T01:29:59.025Z,79.27
2023-04-13T01:32:45.736Z,78.63
2023-04-13T01:35:31.975Z,78.60
2023-04-13T01:38:24.512Z,78.40
2023-04-13T01:41:11.999Z,78.01
2023-04-13T01:44:03.007Z,77.64
2023-04-13T01:46:56.232Z,77.80
2023-04-13T01:50:45.434Z,76.78
2023-04-13T01:53:44.820Z,76.91
2023-04-13T01:56:34.043Z,76.53
2023-04-13T01:59:22.551Z,76.13
2023-04-13T02:02:08.180Z,76.04
2023-04-13T02:04:54.079Z,75.54
2023-04-13T02:07:40.328Z,75.63
2023-04-13T02:10:26.573Z,74.96
2023-04-13T02:13:13.984Z,75.04
2023-04-13T02:15:59.330Z,75.06
2023-04-13T02:18:46.573Z,74.91
2023-04-13T02:21:32.154Z,74.48
2023-04-13T02:24:17.494Z,74.49
2023-04-13T02:27:04.237Z,73.91
2023-04-13T02:29:52.532Z,74.64
2023-04-13T02:32:41.152Z,74.35
2023-04-13T02:35:27.427Z,74.20
2023-04-13T02:38:12.701Z,74.35
2023-04-13T02:41:02.243Z,74.05
2023-04-13T02:43:50.222Z,74.24
2023-04-13T02:46:37.225Z,74.64
2023-04-13T02:49:28.681Z,75.44
2023-04-13T02:52:23.280Z,75.62
2023-04-13T02:55:15.891Z,75.70
2023-04-13T02:58:09.434Z,75.59
2023-04-13T03:00:55.670Z,75.68
2023-04-13T03:03:43.037Z,75.64
2023-04-13T03:06:28.751Z,75.79
2023-04-13T03:09:18.340Z,75.53
2023-04-13T03:12:10.868Z,75.42
2023-04-13T03:15:05.233Z,75.86
2023-04-13T03:17:50.730Z,75.39
2023-04-13T03:20:41.948Z,75.29
2023-04-13T03:23:27.289Z,75.11
2023-04-13T03:26:12.719Z,75.45
2023-04-13T03:28:58.632Z,75.89
2023-04-13T03:31:45.978Z,76.42
2023-04-13T03:34:31.886Z,76.33
2023-04-13T03:37:21.107Z,77.37
2023-04-13T03:40:13.148Z,77.25
2023-04-13T03:43:07.123Z,77.28
2023-04-13T03:45:56.486Z,77.47
2023-04-13T03:48:42.431Z,77.22
2023-04-13T03:51:31.743Z,77.53
2023-04-13T03:54:18.384Z,77.06
2023-04-13T03:57:04.670Z,76.95
2023-04-13T03:59:52.214Z,77.41
2023-04-13T04:02:47.308Z,76.96
2023-04-13T04:05:40.493Z,76.91
2023-04-13T04:08:25.898Z,76.61
2023-04-13T04:11:14.708Z,76.88
2023-04-13T04:14:01.439Z,76.97
2023-04-13T04:16:47.085Z,76.91
2023-04-13T04:19:34.502Z,76.76
2023-04-13T04:22:19.806Z,76.96
2023-04-13T04:25:05.854Z,77.01
2023-04-13T04:27:58.192Z,76.90
2023-04-13T04:30:45.740Z,76.70
2023-04-13T04:33:35.360Z,76.74
2023-04-13T04:36:21.404Z,76.31
2023-04-13T04:39:14.343Z,76.35
2023-04-13T04:42:11.003Z,76.55
2023-04-13T04:44:57.833Z,76.84
2023-04-13T04:47:49.810Z,76.66
2023-04-13T04:50:40.123Z,75.87
2023-04-13T04:53:30.119Z,75.81
2023-04-13T04:56:16.225Z,75.98
2023-04-13T04:59:06.713Z,74.97
2023-04-13T05:02:04.622Z,75.27
2023-04-13T05:04:53.147Z,74.52
2023-04-13T05:07:39.782Z,73.96
2023-04-13T05:10:28.701Z,74.34
2023-04-13T05:13:16.869Z,73.58
2023-04-13T05:16:11.025Z,73.69
2023-04-13T05:18:58.290Z,73.18
2023-04-13T05:22:10.535Z,70.65
2023-04-13T05:25:03.092Z,70.39
2023-04-13T05:27:48.677Z,69.90
2023-04-13T05:30:35.523Z,68.71
2023-04-13T05:33:23.777Z,68.37
2023-04-13T05:36:14.003Z,67.48
2023-04-13T05:39:02.586Z,66.71
2023-04-13T05:41:49.253Z,66.10
2023-04-13T05:44:36.306Z,66.08
2023-04-13T05:47:24.103Z,65.87
2023-04-13T05:50:14.967Z,65.33
2023-04-13T05:53:01.499Z,64.56
2023-04-13T05:55:55.256Z,63.80
2023-04-13T05:58:40.872Z,63.68
2023-04-13T06:01:48.356Z,63.50
2023-04-13T06:04:36.327Z,62.99
2023-04-13T06:07:23.314Z,62.26
2023-04-13T06:10:09.129Z,61.26
2023-04-13T06:12:54.762Z,61.17
2023-04-13T06:15:40.456Z,60.78
2023-04-13T06:18:28.904Z,60.72
2023-04-13T06:21:14.634Z,60.07
2023-04-13T06:24:00.321Z,59.91
2023-04-13T06:26:56.572Z,60.03
2023-04-13T06:29:42.415Z,59.57
2023-04-13T06:32:29.856Z,59.78
2023-04-13T06:35:17.353Z,59.09
2023-04-13T06:38:07.426Z,58.33
2023-04-13T06:41:05.704Z,59.24
2023-04-13T06:43:54.724Z,58.97
2023-04-13T06:46:47.399Z,58.99
2023-04-13T06:49:34.130Z,58.54
2023-04-13T06:52:21.050Z,58.77
2023-04-13T06:55:07.880Z,57.81
2023-04-13T06:57:57.324Z,57.60
2023-04-13T07:00:42.683Z,58.56
2023-04-13T07:03:28.394Z,57.33
2023-04-13T07:06:14.377Z,57.61
2023-04-13T07:09:04.347Z,56.82
2023-04-13T07:11:51.066Z,57.81
2023-04-13T07:14:40.991Z,59.07
2023-04-13T07:17:29.057Z,57.43
2023-04-13T07:20:14.621Z,58.01
2023-04-13T07:23:00.731Z,59.15
2023-04-13T07:25:51.230Z,58.35
2023-04-13T07:28:43.088Z,57.70
2023-04-13T07:31:30.786Z,57.91
2023-04-13T07:34:16.847Z,57.56
2023-04-13T07:37:05.111Z,57.20
2023-04-13T07:39:50.759Z,56.92
2023-04-13T07:42:40.026Z,58.33
2023-04-13T07:45:25.305Z,57.92
2023-04-13T07:48:11.128Z,59.65
2023-04-13T07:50:58.434Z,57.45
2023-04-13T07:53:43.923Z,57.39
2023-04-13T07:56:31.317Z,56.63
2023-04-13T07:59:19.225Z,57.55
2023-04-13T08:02:05.730Z,58.71
2023-04-13T08:04:54.645Z,57.45
2023-04-13T08:07:46.853Z,55.54
2023-04-13T08:10:35.184Z,54.43
2023-04-13T08:13:23.975Z,53.56
2023-04-13T08:16:10.419Z,51.88
2023-04-13T08:18:57.580Z,51.39
2023-04-13T08:21:43.384Z,52.93
2023-04-13T08:24:29.282Z,47.25
2023-04-13T08:27:15.179Z,47.96
2023-04-13T08:30:02.535Z,48.41
2023-04-13T08:33:00.283Z,49.38
2023-04-13T08:35:46.521Z,49.41
2023-04-13T08:38:35.587Z,48.47
2023-04-13T08:41:24.158Z,48.46
2023-04-13T08:44:13.782Z,49.04
2023-04-13T08:47:04.259Z,48.96
2023-04-13T08:49:54.198Z,48.86
2023-04-13T08:52:49.380Z,51.75
2023-04-13T08:55:43.571Z,48.79
2023-04-13T08:58:34.947Z,50.00
2023-04-13T09:01:21.935Z,51.28
2023-04-13T09:04:10.853Z,48.80
2023-04-13T09:07:00.633Z,48.63
2023-04-13T09:09:48.595Z,51.30
2023-04-13T09:12:34.997Z,51.55
2023-04-13T09:15:22.625Z,47.96
2023-04-13T09:18:31.760Z,46.39
2023-04-13T09:21:37.407Z,47.68
2023-04-13T09:24:23.117Z,49.22
2023-04-13T09:27:23.201Z,48.72
2023-04-13T09:30:12.709Z,49.71
2023-04-13T09:33:05.946Z,50.03
2023-04-13T09:35:52.076Z,47.00
2023-04-13T09:38:37.765Z,48.16
2023-04-13T09:41:36.549Z,49.68
2023-04-13T09:44:28.625Z,46.64
2023-04-13T09:47:15.533Z,48.65
2023-04-13T09:50:04.766Z,45.85
2023-04-13T09:53:05.246Z,44.71
2023-04-13T09:56:00.670Z,46.66
2023-04-13T09:58:48.257Z,46.56
2023-04-13T10:01:34.463Z,45.68
2023-04-13T10:04:21.245Z,44.26
2023-04-13T10:07:07.082Z,44.36
2023-04-13T10:09:55.964Z,42.01
2023-04-13T10:12:49.590Z,41.31
2023-04-13T10:16:09.916Z,42.19
2023-04-13T10:19:03.738Z,41.50
2023-04-13T10:21:52.609Z,41.01
2023-04-13T10:24:41.650Z,41.81
2023-04-13T10:27:28.392Z,43.77
2023-04-13T10:30:17.801Z,43.99
2023-04-13T10:33:09.499Z,43.53
2023-04-13T10:36:02.391Z,44.87
2023-04-13T10:38:48.067Z,44.74
2023-04-13T10:41:34.453Z,45.37
2023-04-13T10:44:23.786Z,45.31
2023-04-13T10:47:09.932Z,44.10
2023-04-13T10:49:55.829Z,43.25
2023-04-13T10:52:41.412Z,44.58
2023-04-13T10:55:30.077Z,42.80
2023-04-13T10:58:19.644Z,43.06
2023-04-13T11:01:06.297Z,44.42
2023-04-13T11:04:04.563Z,44.27
2023-04-13T11:06:53.187Z,44.89
2023-04-13T11:09:39.296Z,43.02
2023-04-13T11:12:25.368Z,41.02
2023-04-13T11:15:11.543Z,39.68
2023-04-13T11:17:59.232Z,43.00
2023-04-13T11:20:44.588Z,42.48
2023-04-13T11:23:34.453Z,43.81
2023-04-13T11:26:38.588Z,42.31
2023-04-13T11:29:24.292Z,41.87
2023-04-13T11:32:18.895Z,41.91
2023-04-13T11:35:12.687Z,43.59
2023-04-13T11:37:59.700Z,43.88
2023-04-13T11:40:48.426Z,44.71
2023-04-13T11:43:34.179Z,42.32
2023-04-13T11:46:25.541Z,42.21
2023-04-13T11:49:11.480Z,43.47
2023-04-13T11:51:58.157Z,44.70
2023-04-13T11:54:44.882Z,44.81
2023-04-13T11:57:34.015Z,44.75
2023-04-13T12:00:27.470Z,45.51
2023-04-13T12:03:34.444Z,45.02
2023-04-13T12:06:20.902Z,44.71
2023-04-13T12:09:10.610Z,45.02
2023-04-13T12:12:20.553Z,45.03
2023-04-13T12:15:18.050Z,44.13
2023-04-13T12:18:15.634Z,44.55
2023-04-13T12:21:06.039Z,44.54
2023-04-13T12:23:59.489Z,44.29
2023-04-13T12:29:37.942Z,43.13
2023-04-13T12:32:25.125Z,42.87
2023-04-13T12:35:10.929Z,43.61
2023-04-13T12:37:56.826Z,44.69
2023-04-13T12:40:42.449Z,44.57
2023-04-13T12:43:28.905Z,44.73
2023-04-13T12:46:14.677Z,43.41
2023-04-13T12:49:00.616Z,43.83
2023-04-13T12:51:46.573Z,45.50
2023-04-13T12:54:32.521Z,44.28
2023-04-13T12:57:18.198Z,44.96
2023-04-13T13:00:10.355Z,45.10
2023-04-13T13:03:10.155Z,44.40
2023-04-13T13:05:58.754Z,44.99
2023-04-13T13:08:47.180Z,44.52
2023-04-13T13:11:34.519Z,42.55
2023-04-13T13:14:22.990Z,43.53
2023-04-13T13:17:08.626Z,43.62
2023-04-13T13:19:55.616Z,44.47
2023-04-13T13:22:42.242Z,43.57
2023-04-13T13:25:27.944Z,43.69
2023-04-13T13:28:15.278Z,43.12
2023-04-13T13:31:01.699Z,43.95
2023-04-13T13:33:48.930Z,43.03
2023-04-13T13:36:34.881Z,42.82
2023-04-13T13:39:31.309Z,42.54
2023-04-13T13:42:17.356Z,43.82
2023-04-13T13:45:02.737Z,43.32
2023-04-13T13:47:52.168Z,42.91
2023-04-13T13:50:39.648Z,43.23
2023-04-13T13:53:28.066Z,42.77
2023-04-13T13:56:14.496Z,43.22
2023-04-13T13:59:00.376Z,43.57
2023-04-13T14:01:47.108Z,44.25
2023-04-13T14:04:33.225Z,45.13
2023-04-13T14:07:18.737Z,44.67
2023-04-13T14:10:05.968Z,44.50
2023-04-13T14:12:54.591Z,44.54
2023-04-13T14:15:40.026Z,43.47
2023-04-13T14:18:27.867Z,42.50
2023-04-13T14:21:16.147Z,42.83
2023-04-13T14:24:02.215Z,42.47
2023-04-13T14:26:48.486Z,42.64
2023-04-13T14:29:34.410Z,42.80
2023-04-13T14:32:26.426Z,43.65
2023-04-13T14:35:12.245Z,43.28
2023-04-13T14:37:57.941Z,42.59
2023-04-13T14:40:49.697Z,41.94
2023-04-13T14:43:39.178Z,42.06
2023-04-13T14:46:27.954Z,42.35
2023-04-13T14:49:16.297Z,42.94
2023-04-13T14:52:02.197Z,42.73
2023-04-13T14:54:47.777Z,42.32
2023-04-13T14:57:33.828Z,42.09
2023-04-13T15:00:26.066Z,41.54
2023-04-13T15:03:13.236Z,41.76
2023-04-13T15:06:03.261Z,41.81
2023-04-13T15:08:49.852Z,41.93
2023-04-13T15:11:37.936Z,42.39
2023-04-13T15:14:24.098Z,42.42
2023-04-13T15:17:09.698Z,42.24
2023-04-13T15:19:56.316Z,42.59
2023-04-13T15:22:41.919Z,42.09
2023-04-13T15:25:27.708Z,41.56
2023-04-13T15:28:14.157Z,42.01
2023-04-13T15:30:59.829Z,41.56
2023-04-13T15:33:45.486Z,41.87
2023-04-13T15:36:31.236Z,41.53
2023-04-13T15:39:16.903Z,41.03
2023-04-13T15:42:02.875Z,42.04
2023-04-13T15:44:48.672Z,41.73
2023-04-13T15:47:34.763Z,41.24
2023-04-13T15:50:20.477Z,41.53
2023-04-13T15:53:06.427Z,41.19
2023-04-13T15:55:52.239Z,41.58
2023-04-13T15:58:37.855Z,42.54
2023-04-13T16:01:23.910Z,42.97
2023-04-13T16:04:10.194Z,42.80
2023-04-13T16:07:11.842Z,43.36
2023-04-13T16:10:01.446Z,44.10
2023-04-13T16:12:50.065Z,44.19
2023-04-13T16:15:37.037Z,44.27
2023-04-13T16:18:26.173Z,44.15
2023-04-13T16:21:12.469Z,45.30
2023-04-13T16:23:58.163Z,44.17
2023-04-13T16:26:45.158Z,44.77
2023-04-13T16:29:32.748Z,45.43
2023-04-13T16:32:18.933Z,45.98
2023-04-13T16:35:04.972Z,46.42
2023-04-13T16:37:50.621Z,48.14
2023-04-13T16:40:36.501Z,49.88
2023-04-13T16:43:21.924Z,50.50
2023-04-13T16:46:07.725Z,50.80
2023-04-13T16:48:53.012Z,51.65
2023-04-13T16:51:38.577Z,50.35
2023-04-13T16:54:23.986Z,50.49
2023-04-13T16:57:09.986Z,50.87
2023-04-13T16:59:57.642Z,51.25
2023-04-13T17:02:43.265Z,51.42
2023-04-13T17:05:28.963Z,51.49
2023-04-13T17:08:16.268Z,51.95
2023-04-13T17:11:04.941Z,53.21
2023-04-13T17:13:51.469Z,54.31
2023-04-13T17:16:37.403Z,54.44
2023-04-13T17:19:23.783Z,54.92
2023-04-13T17:22:10.025Z,53.49
2023-04-13T17:24:56.195Z,54.15
2023-04-13T17:27:41.715Z,54.70
2023-04-13T17:30:28.044Z,53.49
2023-04-13T17:33:14.422Z,54.28
2023-04-13T17:36:00.101Z,54.77
2023-04-13T17:38:45.531Z,54.99
2023-04-13T17:41:30.941Z,55.90
2023-04-13T17:44:16.332Z,56.93
2023-04-13T17:47:01.922Z,57.23
2023-04-13T17:49:47.170Z,57.78
2023-04-13T17:52:32.720Z,57.47
2023-04-13T17:55:18.037Z,57.65
2023-04-13T17:58:04.184Z,58.62
2023-04-13T18:00:49.521Z,58.87
2023-04-13T18:03:35.275Z,59.13
2023-04-13T18:06:20.919Z,58.87
2023-04-13T18:09:07.356Z,58.04
2023-04-13T18:11:52.949Z,57.56
2023-04-13T18:14:38.977Z,57.99
2023-04-13T18:17:26.285Z,58.18
2023-04-13T18:20:12.432Z,59.00
2023-04-13T18:22:57.786Z,59.05
2023-04-13T18:25:43.528Z,58.77
2023-04-13T18:28:29.748Z,59.45
2023-04-13T18:31:15.768Z,59.92
2023-04-13T18:34:01.809Z,60.28
2023-04-13T18:36:47.648Z,60.48
2023-04-13T18:39:33.987Z,60.59
2023-04-13T18:42:19.403Z,60.69
2023-04-13T18:45:06.348Z,60.46
2023-04-13T18:47:52.321Z,61.21
2023-04-13T18:50:38.761Z,61.53
2023-04-13T18:53:25.071Z,61.44
2023-04-13T18:56:14.341Z,61.03
2023-04-13T18:59:00.954Z,60.49
2023-04-13T19:01:47.250Z,60.43
2023-04-13T19:04:35.180Z,60.49
2023-04-13T19:07:22.203Z,60.90
2023-04-13T19:10:08.488Z,60.92
2023-04-13T19:12:54.298Z,61.74
2023-04-13T19:15:39.646Z,62.62
2023-04-13T19:18:25.765Z,63.27
2023-04-13T19:21:11.828Z,63.33
2023-04-13T19:23:58.386Z,64.27
2023-04-13T19:26:44.704Z,63.28
2023-04-13T19:29:31.508Z,63.75
2023-04-13T19:32:17.343Z,63.77
2023-04-13T19:35:03.999Z,63.88
2023-04-13T19:37:50.000Z,63.88
2023-04-13T19:40:35.808Z,63.99
2023-04-13T19:43:23.584Z,63.83
2023-04-13T19:46:09.457Z,63.46
2023-04-13T19:48:58.951Z,63.31
2023-04-13T19:51:44.609Z,63.02
2023-04-13T19:54:30.498Z,62.93
2023-04-13T19:57:16.532Z,63.16
2023-04-13T20:00:02.872Z,64.33
2023-04-13T20:02:52.597Z,64.75
2023-04-13T20:05:39.985Z,65.14
2023-04-13T20:08:25.839Z,65.27
2023-04-13T20:11:11.941Z,64.74
2023-04-13T20:13:57.533Z,64.58
2023-04-13T20:16:43.262Z,64.07
2023-04-13T20:19:28.667Z,64.17
2023-04-13T20:22:14.284Z,64.35
2023-04-13T20:24:59.610Z,65.75
2023-04-13T20:27:45.753Z,64.93
2023-04-13T20:30:31.492Z,64.02
2023-04-13T20:33:17.226Z,64.31
2023-04-13T20:36:03.287Z,64.17
2023-04-13T20:38:48.960Z,64.58
2023-04-13T20:41:35.554Z,64.64
2023-04-13T20:44:25.989Z,64.47
2023-04-13T20:47:14.636Z,64.79
2023-04-13T20:50:00.588Z,64.29
2023-04-13T20:52:46.432Z,64.67
2023-04-13T20:55:32.404Z,65.00
2023-04-13T20:58:17.792Z,65.26
2023-04-13T21:01:03.593Z,65.10
2023-04-13T21:03:49.979Z,65.54
2023-04-13T21:06:35.384Z,66.03
2023-04-13T21:09:21.082Z,66.45
2023-04-13T21:12:06.653Z,66.93
2023-04-13T21:14:52.379Z,67.38
2023-04-13T21:17:38.188Z,67.31
2023-04-13T21:20:24.370Z,67.66
2023-04-13T21:23:13.820Z,67.51
2023-04-13T21:25:59.083Z,67.40
2023-04-13T21:28:44.444Z,67.56
2023-04-13T21:31:31.322Z,67.74
2023-04-13T21:34:18.244Z,67.84
2023-04-13T21:37:03.772Z,67.75
2023-04-13T21:39:49.698Z,67.67
2023-04-13T21:42:35.016Z,68.22
2023-04-13T21:45:20.792Z,68.65
2023-04-13T21:48:06.422Z,68.81
2023-04-13T21:50:52.785Z,69.06
2023-04-13T21:53:38.923Z,69.08
2023-04-13T21:56:24.532Z,68.78
2023-04-13T21:59:09.944Z,68.66
2023-04-13T22:01:55.592Z,68.34
2023-04-13T22:04:41.398Z,68.09
2023-04-13T22:07:39.392Z,67.78
2023-04-13T22:10:28.243Z,67.50
2023-04-13T22:13:13.779Z,67.73
2023-04-13T22:15:59.384Z,67.30
2023-04-13T22:18:45.063Z,67.74
2023-04-13T22:21:31.427Z,67.38
2023-04-13T22:24:17.121Z,68.04
2023-04-13T22:27:03.508Z,68.10
2023-04-13T22:29:49.399Z,68.71
2023-04-13T22:32:34.989Z,68.15
2023-04-13T22:35:20.611Z,67.85
2023-04-13T22:38:05.998Z,68.02
2023-04-13T22:40:51.353Z,68.03
2023-04-13T22:43:36.938Z,68.31
2023-04-13T22:46:23.056Z,67.96
2023-04-13T22:49:08.577Z,67.65
2023-04-13T22:51:53.763Z,67.94
2023-04-13T22:54:39.579Z,68.60
2023-04-13T22:57:25.770Z,68.84
2023-04-13T23:00:12.128Z,69.20
2023-04-13T23:02:57.612Z,69.00
2023-04-13T23:05:43.857Z,68.87
2023-04-13T23:08:29.496Z,68.24
2023-04-13T23:11:15.138Z,68.64
2023-04-13T23:14:00.740Z,68.01
2023-04-13T23:16:46.576Z,67.71
2023-04-13T23:19:31.955Z,67.62
2023-04-13T23:22:17.336Z,67.84
2023-04-13T23:25:02.798Z,67.65
2023-04-13T23:27:48.003Z,67.65
2023-04-13T23:30:33.429Z,67.66
2023-04-13T23:33:21.124Z,67.67
2023-04-13T23:36:07.272Z,68.43
2023-04-13T23:38:53.082Z,68.60
2023-04-13T23:41:38.460Z,68.24
2023-04-13T23:44:23.902Z,68.76
2023-04-13T23:47:09.380Z,69.34
2023-04-13T23:49:55.751Z,68.98
2023-04-13T23:52:41.351Z,68.95
2023-04-13T23:55:27.790Z,68.97
2023-04-13T23:58:13.302Z,68.60
